Indianapolis, IN (46253)

5:26 AM EST on November 27, 2014 (GMT -0500)
Speedway | Change Station
CLOSE
Current Station
Personal Weather Station
Location: Speedway, IN
Elevation: 768 ft
Nearby Weather Stations

Elev 768 ft 39.81 °N, 86.26 °W | Updated 2 seconds ago

Mostly Cloudy
Mostly Cloudy
26.9 °F
Feels Like 22 °F
N
4.2
Wind Variable Wind from NNW
Gusts 6.1 mph

Today
High -- | Low -- °F
--% Chance of Precip.
Yesterday
High -- | Low -- °F
Precip. -- in
7:43 AM 5:22 PM
Waxing Crescent, 28% visible
Pressure 30.20 in
Visibility 9.0 miles
Clouds Overcast 2100 ft
Windchill 22 °F
Dew Point 16 °F
Humidity 63%
Rainfall 0.00 in
Snow Depth Not available.
UV 0 out of 12
Pollen .10 out of 12
Air Quality Not available.
Flu Activity Not available.
METAR KIND 270954Z 34010KT 9SM OVC021 M03/M07 A3018 RMK AO2 SLP227 T10281072

More Conditions Fewer Conditions

Pressure 30.20 in
Visibility 9.0 miles
Clouds Overcast 2100 ft
Windchill 22 °F
Dew Point 16 °F
Humidity 63%
Rainfall 0.00 in
Snow Depth Not available.
UV 0 out of 12
Pollen .10 out of 12
Air Quality Not available.
Flu Activity Not available.
METAR KIND 270954Z 34010KT 9SM OVC021 M03/M07 A3018 RMK AO2 SLP227 T10281072

More Conditions Fewer Conditions

10-Day Weather Forecast

Almanac

Astronomy

Nov. 27, 2014 Rise Set
Actual Time
Civil Twilight
Nautical Twilight
Astronomical Twilight
Moon
Length of Visible Light
Length of Day
Tomorrow will be .
, % of the Moon is Illuminated

Today's Extremes

State Highs State Lows

Community

WunderPhotos

Upload Photos

1,773,968 photos uploaded!

WunderBlogs® & News

Nearby

Air Quality

  Air Quality AQ Index Pollutant
Not available.

Snow Depth

Station Depth Elevation

Earthquake Activity

City Distance Mag. Time & Date
Minimum magnitude displayed is 2.5.

Coastal Water Temperatures

Place Temperature

Nearby Weather Stations